Time;durP1;ratioP1;P1;durP2;ratioP2;P2;SDS_P1;SDS_P2;PMS_P1;PMS_P2;Temp;Humidity;BMP_temperature;BMP_pressure;BME280_temperature;BME280_humidity;BME280_pressure;Samples;Min_cycle;Max_cycle;Signal;HPM_P1;HPM_P2
2023/03/07 00:01:07;;;;;;;12.20;8.40;;;4.20;99.90;;;;;;5059537;28;20203;-48
2023/03/07 00:03:35;;;;;;;14.20;9.43;;;4.20;99.90;;;;;;5070756;28;20225;-47
2023/03/07 00:06:03;;;;;;;10.57;8.33;;;4.10;99.90;;;;;;5073583;28;20276;-47
2023/03/07 00:08:31;;;;;;;16.40;8.53;;;4.20;99.90;;;;;;5072718;28;20220;-49
2023/03/07 00:11:02;;;;;;;12.10;9.00;;;4.30;99.90;;;;;;5056991;28;20248;-47
2023/03/07 00:13:31;;;;;;;11.03;7.60;;;4.30;99.90;;;;;;5073661;28;20233;-47
2023/03/07 00:16:02;;;;;;;16.93;10.07;;;4.30;99.90;;;;;;5074179;28;20200;-48
2023/03/07 00:18:29;;;;;;;13.30;9.90;;;4.20;99.90;;;;;;5070726;28;20312;-46
2023/03/07 00:20:59;;;;;;;12.00;8.37;;;4.20;99.90;;;;;;5065367;28;20203;-47
2023/03/07 00:23:26;;;;;;;14.07;8.30;;;4.20;99.90;;;;;;5071848;28;20222;-48
2023/03/07 00:25:59;;;;;;;14.00;7.97;;;4.20;99.90;;;;;;5073656;28;20203;-48
2023/03/07 00:28:27;;;;;;;11.63;8.30;;;4.20;99.90;;;;;;5072010;28;20222;-47
2023/03/07 00:30:55;;;;;;;13.20;9.27;;;4.10;99.90;;;;;;5073633;28;20244;-48
2023/03/07 00:33:22;;;;;;;14.37;9.03;;;4.10;99.90;;;;;;5069020;28;20203;-48
2023/03/07 00:35:56;;;;;;;14.07;8.77;;;4.10;99.90;;;;;;5072207;28;20286;-50
2023/03/07 00:38:24;;;;;;;14.17;8.50;;;4.00;99.90;;;;;;5073541;28;20231;-48
2023/03/07 00:40:58;;;;;;;9.50;6.67;;;4.00;99.90;;;;;;5073715;28;20203;-47
2023/03/07 00:43:27;;;;;;;12.40;7.70;;;4.00;99.90;;;;;;5065540;28;20207;-47
2023/03/07 00:45:54;;;;;;;11.60;7.37;;;4.00;99.90;;;;;;5071579;28;20212;-46
2023/03/07 00:48:21;;;;;;;18.07;8.80;;;4.00;99.90;;;;;;5067020;28;20222;-47
2023/03/07 00:50:49;;;;;;;14.47;9.40;;;4.00;99.90;;;;;;5071828;28;20203;-47
2023/03/07 00:53:16;;;;;;;12.00;8.03;;;3.90;99.90;;;;;;5071871;28;20656;-46
2023/03/07 00:55:43;;;;;;;12.17;7.97;;;3.90;99.90;;;;;;5061866;28;20208;-48
2023/03/07 00:58:10;;;;;;;10.07;8.13;;;3.90;99.90;;;;;;5073003;28;20280;-47
2023/03/07 01:00:38;;;;;;;18.07;14.27;;;3.90;99.90;;;;;;5064742;28;20265;-47
2023/03/07 01:03:05;;;;;;;17.07;14.00;;;3.80;99.90;;;;;;5065369;28;20673;-48
2023/03/07 01:05:32;;;;;;;14.17;11.10;;;3.80;99.90;;;;;;5071167;28;20211;-47
2023/03/07 01:07:59;;;;;;;10.10;8.03;;;3.80;99.90;;;;;;5064725;28;20194;-46
2023/03/07 01:10:28;;;;;;;9.57;6.50;;;3.80;99.90;;;;;;5073047;28;20200;-46
2023/03/07 01:12:55;;;;;;;13.83;7.73;;;3.70;99.90;;;;;;5072681;28;20208;-47
2023/03/07 01:15:23;;;;;;;11.30;6.67;;;3.60;99.90;;;;;;5066095;28;20253;-47
2023/03/07 01:17:51;;;;;;;10.53;7.63;;;3.60;99.90;;;;;;5062597;28;20983;-47
2023/03/07 01:20:18;;;;;;;9.17;7.33;;;3.60;99.90;;;;;;5072556;28;20261;-47
2023/03/07 01:22:49;;;;;;;10.40;7.30;;;3.60;99.90;;;;;;5072733;28;20206;-47
2023/03/07 01:25:16;;;;;;;9.00;7.10;;;3.60;99.90;;;;;;5066331;28;20257;-48
2023/03/07 01:27:43;;;;;;;10.13;7.40;;;3.60;99.90;;;;;;5070441;28;20253;-47
2023/03/07 01:30:11;;;;;;;10.67;7.77;;;3.60;99.90;;;;;;5070407;28;20198;-47
2023/03/07 01:32:38;;;;;;;10.03;6.67;;;3.60;99.90;;;;;;5067707;28;20203;-49
2023/03/07 01:35:07;;;;;;;9.33;7.10;;;3.60;99.90;;;;;;5072327;28;20244;-47
2023/03/07 01:37:34;;;;;;;12.00;7.23;;;3.60;99.90;;;;;;5072432;28;20260;-48
2023/03/07 01:40:03;;;;;;;11.63;7.37;;;3.60;99.90;;;;;;5069680;28;20223;-49
2023/03/07 01:42:31;;;;;;;12.17;7.87;;;3.60;99.90;;;;;;5068504;28;20197;-47
2023/03/07 01:45:00;;;;;;;10.27;8.03;;;3.60;99.90;;;;;;5064202;28;20733;-47
2023/03/07 01:47:28;;;;;;;11.23;8.67;;;3.60;99.90;;;;;;5070658;28;20206;-47
2023/03/07 01:49:55;;;;;;;14.97;8.43;;;3.60;99.90;;;;;;5068375;28;20312;-48
2023/03/07 01:52:28;;;;;;;12.77;8.57;;;3.60;99.90;;;;;;5071967;28;20614;-47
2023/03/07 01:54:58;;;;;;;19.70;14.10;;;3.60;99.90;;;;;;5071038;28;20200;-47
2023/03/07 01:57:32;;;;;;;20.87;14.17;;;3.60;99.90;;;;;;5069162;28;20202;-47
2023/03/07 02:00:06;;;;;;;14.23;11.40;;;3.60;99.90;;;;;;5051052;28;20277;-47
2023/03/07 02:02:34;;;;;;;11.83;8.50;;;3.60;99.90;;;;;;5068330;28;20230;-46
2023/03/07 02:05:05;;;;;;;13.43;10.07;;;3.60;99.90;;;;;;5069732;28;20258;-48
2023/03/07 02:07:40;;;;;;;15.47;10.53;;;3.60;99.90;;;;;;5068421;28;20200;-47
2023/03/07 02:10:10;;;;;;;10.13;8.47;;;3.60;99.90;;;;;;5068344;28;20733;-47
2023/03/07 02:12:38;;;;;;;12.73;8.53;;;3.50;99.90;;;;;;5071722;28;20671;-48
2023/03/07 02:15:06;;;;;;;13.53;8.93;;;3.50;99.90;;;;;;5069333;28;20203;-47
2023/03/07 02:17:33;;;;;;;11.77;8.97;;;3.50;99.90;;;;;;5065964;28;20197;-48
2023/03/07 02:20:10;;;;;;;8.83;7.70;;;3.40;99.90;;;;;;5071424;28;20631;-47
2023/03/07 02:22:39;;;;;;;15.00;10.77;;;3.40;99.90;;;;;;5058830;28;20203;-47
2023/03/07 02:25:14;;;;;;;16.40;9.53;;;3.40;99.90;;;;;;5068405;28;20286;-49
2023/03/07 02:27:45;;;;;;;14.63;9.50;;;3.40;99.90;;;;;;5070956;28;20247;-48
2023/03/07 02:30:12;;;;;;;17.13;10.30;;;3.30;99.90;;;;;;5069237;28;20289;-46
2023/03/07 02:32:39;;;;;;;14.40;9.60;;;3.30;99.90;;;;;;5071201;28;20202;-48
2023/03/07 02:35:14;;;;;;;14.80;9.47;;;3.30;99.90;;;;;;5066591;28;20203;-45
2023/03/07 02:37:47;;;;;;;14.63;10.27;;;3.30;99.90;;;;;;5071610;28;20290;-47
2023/03/07 02:40:18;;;;;;;14.57;8.10;;;3.30;99.90;;;;;;5068042;28;20226;-46
2023/03/07 02:42:53;;;;;;;14.07;8.63;;;3.30;99.90;;;;;;5071413;28;20204;-47
2023/03/07 02:45:20;;;;;;;13.87;9.50;;;3.30;99.90;;;;;;5071683;28;20203;-47
2023/03/07 02:47:50;;;;;;;16.37;9.07;;;3.40;99.90;;;;;;5055163;28;20205;-46
2023/03/07 02:50:17;;;;;;;12.80;8.93;;;3.40;99.90;;;;;;5067488;28;20207;-47
2023/03/07 02:52:48;;;;;;;16.73;10.37;;;3.30;99.90;;;;;;5071154;28;20749;-47
2023/03/07 02:55:15;;;;;;;17.40;11.53;;;3.30;99.90;;;;;;5068994;28;20211;-47
2023/03/07 02:57:46;;;;;;;20.50;14.33;;;3.30;99.90;;;;;;5069244;28;20290;-48
2023/03/07 03:00:16;;;;;;;22.27;16.73;;;3.30;99.90;;;;;;5058545;28;20227;-48
2023/03/07 03:02:43;;;;;;;20.77;14.07;;;3.40;99.90;;;;;;5069179;28;20203;-48
2023/03/07 03:05:10;;;;;;;15.60;10.33;;;3.50;99.90;;;;;;5071404;28;20202;-47
2023/03/07 03:07:37;;;;;;;16.10;11.53;;;3.50;99.90;;;;;;5069003;28;20210;-46
2023/03/07 03:10:05;;;;;;;17.80;10.00;;;3.40;99.90;;;;;;5067176;28;20217;-48
2023/03/07 03:12:31;;;;;;;14.40;11.07;;;3.40;99.90;;;;;;5059732;28;20200;-48
2023/03/07 03:14:58;;;;;;;14.50;9.57;;;3.40;99.90;;;;;;5063320;28;20199;-47
2023/03/07 03:17:27;;;;;;;14.87;11.07;;;3.40;99.90;;;;;;5067085;28;20210;-46
2023/03/07 03:19:55;;;;;;;14.83;11.53;;;3.40;99.90;;;;;;5069831;28;20223;-47
2023/03/07 03:22:22;;;;;;;13.70;9.27;;;3.40;99.90;;;;;;5070799;28;20578;-49
2023/03/07 03:24:49;;;;;;;22.70;14.50;;;3.40;99.90;;;;;;5063979;28;20199;-47
2023/03/07 03:27:16;;;;;;;13.87;9.27;;;3.40;99.90;;;;;;5071056;28;20206;-48
2023/03/07 03:29:43;;;;;;;14.37;8.73;;;3.30;99.90;;;;;;5067012;28;20222;-48
2023/03/07 03:32:10;;;;;;;16.37;9.70;;;3.30;99.90;;;;;;5070844;28;20676;-47
2023/03/07 03:34:39;;;;;;;18.27;10.87;;;3.30;99.90;;;;;;5071209;28;20203;-47
2023/03/07 03:37:06;;;;;;;14.10;9.93;;;3.30;99.90;;;;;;5068424;28;20290;-48
2023/03/07 03:39:33;;;;;;;15.33;9.20;;;3.20;99.90;;;;;;5069908;28;20229;-47
2023/03/07 03:42:00;;;;;;;18.30;10.87;;;3.20;99.90;;;;;;5074494;28;20317;-49
2023/03/07 03:44:27;;;;;;;25.97;18.27;;;3.20;99.90;;;;;;5074699;28;20202;-47
2023/03/07 03:46:55;;;;;;;13.77;10.47;;;3.10;99.90;;;;;;5077044;22;20231;-47
2023/03/07 03:49:22;;;;;;;20.73;13.37;;;3.00;99.90;;;;;;5051796;28;20302;-47
2023/03/07 03:51:50;;;;;;;16.30;10.90;;;2.90;99.90;;;;;;5051377;28;20211;-48
2023/03/07 03:54:17;;;;;;;12.67;9.83;;;2.90;99.90;;;;;;5050088;28;20581;-47
2023/03/07 03:56:44;;;;;;;13.13;9.17;;;2.80;99.90;;;;;;5053806;28;20231;-48
2023/03/07 03:59:11;;;;;;;15.33;10.07;;;2.80;99.90;;;;;;5048594;28;20784;-47
2023/03/07 04:01:38;;;;;;;17.33;12.03;;;2.70;99.90;;;;;;5040443;28;20203;-47
2023/03/07 04:04:05;;;;;;;16.70;10.67;;;2.70;99.90;;;;;;5036196;28;20199;-47
2023/03/07 04:06:34;;;;;;;16.27;11.50;;;2.60;99.90;;;;;;5036979;28;20224;-48
2023/03/07 04:09:04;;;;;;;18.63;16.23;;;2.60;99.90;;;;;;5033878;28;20208;-48
2023/03/07 04:11:31;;;;;;;19.40;11.57;;;2.60;99.90;;;;;;5033599;28;20203;-48
2023/03/07 04:13:59;;;;;;;20.40;15.40;;;2.60;99.90;;;;;;5024749;28;20255;-47
2023/03/07 04:16:26;;;;;;;18.83;10.73;;;2.60;99.90;;;;;;5028936;28;20224;-47
2023/03/07 04:18:54;;;;;;;12.40;9.27;;;2.50;99.90;;;;;;5033367;28;20253;-48
2023/03/07 04:21:22;;;;;;;11.40;8.20;;;2.40;99.90;;;;;;5033613;28;20219;-48
2023/03/07 04:23:54;;;;;;;15.83;9.97;;;2.30;99.90;;;;;;5033377;28;20273;-48
2023/03/07 04:26:22;;;;;;;16.17;10.30;;;2.40;99.90;;;;;;5030825;28;20263;-48
2023/03/07 04:28:49;;;;;;;16.57;9.13;;;2.30;99.90;;;;;;5036773;28;20253;-48
2023/03/07 04:31:18;;;;;;;15.97;8.70;;;2.20;99.90;;;;;;5041260;28;20192;-48
2023/03/07 04:33:46;;;;;;;20.67;10.63;;;2.10;99.90;;;;;;5032930;28;20212;-48
2023/03/07 04:36:16;;;;;;;18.37;10.60;;;2.00;99.90;;;;;;5032055;28;20646;-48
2023/03/07 04:38:43;;;;;;;19.40;11.00;;;1.90;99.90;;;;;;5041514;28;20283;-48
2023/03/07 04:41:13;;;;;;;18.40;11.00;;;1.90;99.90;;;;;;5036873;28;20228;-48
2023/03/07 04:43:41;;;;;;;14.90;9.83;;;2.00;99.90;;;;;;5030966;28;20210;-48
2023/03/07 04:46:09;;;;;;;17.03;12.03;;;2.10;99.90;;;;;;5035078;28;20296;-47
2023/03/07 04:48:36;;;;;;;14.77;10.10;;;2.10;99.90;;;;;;5034701;28;20259;-48
2023/03/07 04:51:04;;;;;;;21.53;10.90;;;2.10;99.90;;;;;;5032060;28;20239;-48
2023/03/07 04:53:31;;;;;;;16.60;10.13;;;1.90;99.90;;;;;;5032517;28;20674;-48
2023/03/07 04:55:59;;;;;;;18.13;10.03;;;1.90;99.90;;;;;;5035935;28;20222;-48
2023/03/07 04:58:26;;;;;;;14.97;9.83;;;1.80;99.90;;;;;;5023641;28;20307;-48
2023/03/07 05:00:56;;;;;;;15.93;9.73;;;1.70;99.90;;;;;;5023100;28;20227;-48
2023/03/07 05:03:25;;;;;;;15.07;9.57;;;1.60;99.90;;;;;;5024564;28;20645;-47
2023/03/07 05:05:52;;;;;;;14.63;10.43;;;1.60;99.90;;;;;;5025648;28;20246;-48
2023/03/07 05:08:19;;;;;;;17.90;10.77;;;1.60;99.90;;;;;;5041810;28;20207;-48
2023/03/07 05:10:46;;;;;;;19.20;10.00;;;1.50;99.90;;;;;;5030663;28;20217;-48
2023/03/07 05:13:13;;;;;;;14.43;8.80;;;1.50;99.90;;;;;;5034716;28;20204;-47
2023/03/07 05:15:40;;;;;;;16.83;10.37;;;1.40;99.90;;;;;;5022183;28;20663;-47
2023/03/07 05:18:08;;;;;;;12.50;9.40;;;1.40;99.90;;;;;;5028022;28;20246;-48
2023/03/07 05:20:35;;;;;;;21.20;10.57;;;1.40;99.90;;;;;;5035862;28;20224;-48
2023/03/07 05:23:02;;;;;;;18.87;10.60;;;1.40;99.90;;;;;;5032499;28;20200;-47
2023/03/07 05:25:29;;;;;;;17.20;10.90;;;1.40;99.90;;;;;;5011201;28;20204;-47
2023/03/07 05:27:56;;;;;;;17.53;11.67;;;1.40;99.90;;;;;;5043593;28;20219;-48
2023/03/07 05:30:23;;;;;;;19.57;12.33;;;1.40;99.90;;;;;;5033132;28;20335;-47
2023/03/07 05:32:51;;;;;;;26.30;11.90;;;1.40;99.90;;;;;;5031046;28;20199;-47
2023/03/07 05:35:23;;;;;;;20.70;12.83;;;1.40;99.90;;;;;;5020475;28;20291;-48
2023/03/07 05:37:50;;;;;;;23.53;12.77;;;1.40;99.90;;;;;;5030759;28;20222;-47
2023/03/07 05:40:17;;;;;;;25.57;14.00;;;1.40;99.90;;;;;;5031763;28;20857;-47
2023/03/07 05:42:48;;;;;;;22.37;11.97;;;1.50;99.90;;;;;;5046059;28;20636;-47
2023/03/07 05:45:15;;;;;;;25.00;14.23;;;1.50;99.90;;;;;;5037602;28;20277;-47
2023/03/07 05:47:43;;;;;;;21.17;13.27;;;1.50;99.90;;;;;;5042483;28;20220;-49
2023/03/07 05:50:11;;;;;;;20.83;12.17;;;1.50;99.90;;;;;;5035078;28;20219;-49
2023/03/07 05:52:40;;;;;;;19.27;11.40;;;1.50;99.90;;;;;;5035658;28;20208;-48
2023/03/07 05:55:07;;;;;;;20.27;11.90;;;1.70;99.90;;;;;;5020143;28;20204;-48
2023/03/07 05:57:34;;;;;;;19.30;13.23;;;1.60;99.90;;;;;;5031694;28;20522;-49
2023/03/07 06:00:04;;;;;;;20.37;11.97;;;1.70;99.90;;;;;;5025611;28;20265;-48
2023/03/07 06:02:31;;;;;;;25.40;12.63;;;1.70;99.90;;;;;;5031200;28;20204;-49
2023/03/07 06:04:58;;;;;;;22.17;12.87;;;1.70;99.90;;;;;;5033680;28;20270;-49
2023/03/07 06:07:25;;;;;;;25.03;13.27;;;1.80;99.90;;;;;;5040645;28;20223;-50
2023/03/07 06:09:54;;;;;;;24.83;14.17;;;1.80;99.90;;;;;;5012290;28;20213;-48
2023/03/07 06:12:21;;;;;;;24.60;15.87;;;1.80;99.90;;;;;;5011408;28;20294;-48
2023/03/07 06:14:48;;;;;;;23.13;14.73;;;1.80;99.90;;;;;;5011792;28;20258;-49
2023/03/07 06:17:15;;;;;;;25.57;14.00;;;1.80;99.90;;;;;;5033625;28;20265;-49
2023/03/07 06:19:42;;;;;;;20.57;13.17;;;1.90;99.90;;;;;;5035015;28;20207;-49
2023/03/07 06:22:09;;;;;;;20.63;14.90;;;1.90;99.90;;;;;;5026181;28;20268;-47
2023/03/07 06:24:36;;;;;;;26.57;16.20;;;2.00;99.90;;;;;;5034804;28;20212;-49
2023/03/07 06:27:09;;;;;;;25.37;15.40;;;2.00;99.90;;;;;;5031946;28;20231;-48
2023/03/07 06:29:36;;;;;;;21.83;13.47;;;2.10;99.90;;;;;;5020766;28;20606;-49
2023/03/07 06:32:04;;;;;;;23.67;14.43;;;2.10;99.90;;;;;;5031070;28;20323;-49
2023/03/07 06:34:31;;;;;;;19.80;14.10;;;2.20;99.90;;;;;;5030887;28;20204;-49
2023/03/07 06:36:58;;;;;;;24.17;13.50;;;2.20;99.90;;;;;;5031081;28;20281;-48
2023/03/07 06:39:26;;;;;;;28.43;15.60;;;2.20;99.90;;;;;;5030600;28;20206;-48
2023/03/07 06:41:53;;;;;;;20.73;12.67;;;2.30;99.90;;;;;;5026250;28;20214;-49
2023/03/07 06:44:21;;;;;;;23.97;14.90;;;2.30;99.90;;;;;;5041610;28;20248;-48
2023/03/07 06:46:48;;;;;;;25.83;13.30;;;2.40;99.90;;;;;;5029474;28;20232;-48
2023/03/07 06:49:15;;;;;;;22.20;12.73;;;2.40;99.90;;;;;;5029450;28;20275;-49
2023/03/07 06:51:42;;;;;;;28.30;14.57;;;2.50;99.90;;;;;;5026421;28;20282;-48
2023/03/07 06:54:09;;;;;;;27.17;15.93;;;2.50;99.90;;;;;;5025836;28;20294;-49
2023/03/07 06:56:36;;;;;;;25.00;14.20;;;2.50;99.90;;;;;;5028416;28;20278;-49
2023/03/07 06:59:03;;;;;;;21.03;12.60;;;2.60;99.90;;;;;;5031007;28;20257;-48
2023/03/07 07:01:31;;;;;;;17.57;11.77;;;2.60;99.90;;;;;;5025478;28;20257;-48
2023/03/07 07:03:58;;;;;;;22.93;12.50;;;2.60;99.90;;;;;;5036501;28;20326;-49
2023/03/07 07:06:26;;;;;;;22.43;12.10;;;2.70;99.90;;;;;;5037651;28;20228;-49
2023/03/07 07:08:55;;;;;;;19.37;11.07;;;2.70;99.90;;;;;;5041282;28;20203;-50
2023/03/07 07:11:22;;;;;;;17.20;10.47;;;2.80;99.90;;;;;;5026099;28;20746;-48
2023/03/07 07:13:50;;;;;;;18.13;11.40;;;2.80;99.90;;;;;;5013412;28;20376;-48
2023/03/07 07:16:18;;;;;;;18.00;11.03;;;2.90;99.90;;;;;;5035986;28;20218;-49
2023/03/07 07:18:47;;;;;;;21.20;12.47;;;3.00;99.90;;;;;;5025266;28;20628;-49
2023/03/07 07:21:14;;;;;;;22.43;14.27;;;3.10;99.90;;;;;;5048050;28;20212;-48
2023/03/07 07:23:41;;;;;;;27.90;15.60;;;3.10;99.90;;;;;;5054283;28;20207;-49
2023/03/07 07:26:08;;;;;;;23.77;14.57;;;3.10;99.90;;;;;;5036708;28;20216;-49
2023/03/07 07:28:35;;;;;;;25.30;14.33;;;3.20;99.90;;;;;;5034267;28;20701;-50
2023/03/07 07:31:02;;;;;;;22.00;14.17;;;3.20;99.90;;;;;;5018477;28;20306;-49
2023/03/07 07:33:30;;;;;;;19.80;12.90;;;3.20;99.90;;;;;;5028255;28;20254;-49
2023/03/07 07:35:58;;;;;;;21.80;12.77;;;3.20;99.90;;;;;;5034997;28;20319;-49
2023/03/07 07:38:25;;;;;;;22.67;12.80;;;3.20;99.90;;;;;;5024580;28;20199;-49
2023/03/07 07:40:52;;;;;;;23.53;14.20;;;3.20;99.90;;;;;;5037555;28;20192;-50
2023/03/07 07:43:19;;;;;;;21.37;12.53;;;3.10;99.90;;;;;;5029316;28;20211;-50
2023/03/07 07:45:46;;;;;;;24.67;14.20;;;3.10;99.90;;;;;;5028926;28;20232;-49
2023/03/07 07:48:13;;;;;;;22.53;13.90;;;3.10;99.90;;;;;;5033738;28;20215;-49
2023/03/07 07:50:40;;;;;;;24.37;13.77;;;3.10;99.90;;;;;;5044259;28;20273;-50
2023/03/07 07:53:09;;;;;;;30.13;14.77;;;3.20;99.90;;;;;;5035670;28;20935;-48
2023/03/07 07:55:36;;;;;;;25.23;14.60;;;3.30;99.90;;;;;;5045068;28;20289;-50
2023/03/07 07:58:03;;;;;;;23.83;13.63;;;3.30;99.90;;;;;;5052442;28;20272;-49
2023/03/07 08:00:30;;;;;;;24.63;14.50;;;3.40;99.90;;;;;;5040193;28;20281;-48
2023/03/07 08:02:59;;;;;;;25.63;14.23;;;3.50;99.90;;;;;;5045115;28;20201;-49
2023/03/07 08:05:26;;;;;;;26.93;13.93;;;3.50;99.90;;;;;;5053620;28;20209;-49
2023/03/07 08:07:53;;;;;;;21.87;15.80;;;3.60;99.90;;;;;;5035884;28;20204;-48
2023/03/07 08:10:21;;;;;;;26.00;14.20;;;3.70;99.90;;;;;;5033327;28;20682;-51
2023/03/07 08:12:51;;;;;;;25.83;14.70;;;3.70;99.90;;;;;;5031847;28;20523;-49
2023/03/07 08:15:20;;;;;;;20.27;13.97;;;3.80;99.90;;;;;;5041600;28;20737;-48
2023/03/07 08:17:50;;;;;;;27.27;13.97;;;3.90;99.90;;;;;;5036360;28;20210;-49
2023/03/07 08:20:17;;;;;;;21.33;12.87;;;4.00;99.90;;;;;;5033537;28;20288;-49
2023/03/07 08:22:48;;;;;;;19.90;12.37;;;4.00;99.90;;;;;;5033046;28;20219;-47
2023/03/07 08:25:19;;;;;;;21.23;12.70;;;4.10;99.90;;;;;;5016410;28;20263;-47
2023/03/07 08:27:51;;;;;;;23.20;13.33;;;4.30;99.90;;;;;;5016799;28;20231;-47
2023/03/07 08:30:19;;;;;;;19.80;12.83;;;4.40;99.90;;;;;;5044976;28;20203;-47
2023/03/07 08:32:50;;;;;;;20.90;11.93;;;4.50;99.90;;;;;;5052877;28;20210;-48
2023/03/07 08:35:17;;;;;;;22.43;12.60;;;4.60;99.90;;;;;;5052988;28;20235;-47
2023/03/07 08:37:44;;;;;;;19.37;12.13;;;4.70;99.90;;;;;;5052838;28;20233;-47
2023/03/07 08:40:13;;;;;;;19.80;12.47;;;4.80;99.90;;;;;;5052395;28;20212;-47
2023/03/07 08:42:40;;;;;;;22.97;11.87;;;4.90;99.90;;;;;;5036616;28;20669;-48
2023/03/07 08:45:09;;;;;;;17.63;11.93;;;5.00;99.90;;;;;;5037405;28;20256;-48
2023/03/07 08:47:37;;;;;;;22.63;12.53;;;5.10;99.90;;;;;;5029046;28;20232;-48
2023/03/07 08:50:05;;;;;;;19.83;12.37;;;5.10;99.90;;;;;;5035659;28;20203;-48
2023/03/07 08:52:32;;;;;;;19.93;14.03;;;5.20;99.90;;;;;;5029185;28;20726;-48
2023/03/07 08:54:59;;;;;;;24.53;13.43;;;5.30;99.90;;;;;;5034224;28;20209;-47
2023/03/07 08:57:26;;;;;;;20.60;14.20;;;5.30;99.90;;;;;;5032024;28;20709;-48
2023/03/07 08:59:53;;;;;;;20.60;11.50;;;5.40;99.90;;;;;;5027517;28;20274;-48
2023/03/07 09:02:21;;;;;;;24.50;12.30;;;5.50;99.90;;;;;;5036183;28;20201;-48
2023/03/07 09:04:48;;;;;;;17.87;11.97;;;5.60;99.90;;;;;;5039946;28;20709;-48
2023/03/07 09:07:15;;;;;;;19.57;11.60;;;5.70;99.90;;;;;;5028465;28;20230;-48
2023/03/07 09:09:42;;;;;;;17.53;11.20;;;6.00;99.90;;;;;;5022307;28;21502;-48
2023/03/07 09:12:10;;;;;;;15.40;11.10;;;6.20;99.90;;;;;;5021814;28;20224;-47
2023/03/07 09:14:37;;;;;;;17.70;11.77;;;6.50;99.90;;;;;;5045077;28;20689;-48
2023/03/07 09:17:04;;;;;;;13.87;10.07;;;6.50;99.90;;;;;;5029116;28;20218;-48
2023/03/07 09:19:32;;;;;;;16.23;9.73;;;6.60;99.90;;;;;;5034578;28;20291;-48
2023/03/07 09:21:59;;;;;;;19.20;11.47;;;6.50;99.90;;;;;;5034331;28;20614;-47
2023/03/07 09:24:26;;;;;;;19.43;11.37;;;6.70;99.90;;;;;;5033210;28;20208;-48
2023/03/07 09:26:53;;;;;;;24.77;12.83;;;6.80;99.90;;;;;;5027368;28;20224;-47
2023/03/07 09:29:20;;;;;;;17.63;11.30;;;6.90;99.90;;;;;;5037220;28;20255;-48
2023/03/07 09:31:47;;;;;;;18.80;12.20;;;7.10;99.90;;;;;;5033645;28;20254;-48
2023/03/07 09:34:14;;;;;;;15.73;11.00;;;7.00;99.90;;;;;;5045903;28;20195;-48
2023/03/07 09:36:43;;;;;;;15.03;11.13;;;7.00;99.90;;;;;;5029179;28;20282;-47
2023/03/07 09:39:13;;;;;;;19.80;10.20;;;6.70;99.90;;;;;;5024433;28;20204;-47
2023/03/07 09:41:59;;;;;;;19.87;10.97;;;6.60;99.90;;;;;;5038995;28;20273;-48
2023/03/07 09:44:45;;;;;;;30.43;16.47;;;6.70;99.90;;;;;;5026204;28;20259;-47
2023/03/07 09:47:53;;;;;;;22.60;13.03;;;6.90;99.90;;;;;;5048689;22;20607;-47
2023/03/07 09:50:29;;;;;;;16.50;11.17;;;8.40;99.90;;;;;;5022059;28;20215;-48
2023/03/07 09:53:01;;;;;;;15.80;10.40;;;9.90;99.90;;;;;;5026643;28;20250;-46
2023/03/07 09:55:31;;;;;;;11.57;9.73;;;10.90;99.90;;;;;;5030666;28;20335;-47
2023/03/07 09:58:01;;;;;;;13.53;9.63;;;11.70;99.90;;;;;;5010937;28;20315;-48
2023/03/07 10:00:33;;;;;;;14.60;9.53;;;12.30;99.90;;;;;;5020842;28;20205;-47
2023/03/07 10:03:12;;;;;;;16.13;10.47;;;11.80;99.90;;;;;;5008214;28;20203;-46
2023/03/07 10:05:42;;;;;;;18.17;10.67;;;12.40;99.90;;;;;;5017757;28;20204;-48
2023/03/07 10:08:14;;;;;;;13.90;10.90;;;12.10;99.90;;;;;;5008839;28;20205;-47
2023/03/07 10:10:44;;;;;;;14.73;10.27;;;12.70;99.90;;;;;;5023347;28;20206;-48
2023/03/07 10:13:32;;;;;;;15.67;11.57;;;13.20;99.90;;;;;;5028582;28;20220;-48
2023/03/07 10:16:03;;;;;;;13.40;10.27;;;13.40;99.90;;;;;;5012440;28;20269;-48
2023/03/07 10:18:52;;;;;;;15.07;10.60;;;12.70;99.90;;;;;;5012261;28;20206;-47
2023/03/07 10:21:28;;;;;;;19.07;11.53;;;12.60;99.90;;;;;;5011565;28;20201;-48
2023/03/07 10:24:11;;;;;;;14.87;9.30;;;12.50;99.90;;;;;;5025316;28;20255;-47
2023/03/07 10:26:46;;;;;;;15.07;10.07;;;13.00;99.90;;;;;;5012144;28;20304;-47
2023/03/07 10:29:15;;;;;;;17.00;10.60;;;13.30;99.90;;;;;;5012243;28;20206;-49
2023/03/07 10:31:47;;;;;;;16.37;10.77;;;13.30;99.90;;;;;;5011972;28;20225;-47
2023/03/07 10:34:17;;;;;;;14.33;10.33;;;13.40;99.50;;;;;;5011900;28;20914;-48
2023/03/07 10:36:46;;;;;;;14.07;10.20;;;13.10;97.80;;;;;;5011944;28;20223;-47
2023/03/07 10:39:25;;;;;;;13.07;11.03;;;13.30;98.10;;;;;;5019190;28;20205;-47
2023/03/07 10:41:52;;;;;;;18.50;11.87;;;13.20;97.00;;;;;;5030136;28;20213;-49
2023/03/07 10:44:21;;;;;;;11.83;9.23;;;13.20;97.10;;;;;;5031396;28;20216;-48
2023/03/07 10:46:54;;;;;;;13.30;10.33;;;13.40;97.70;;;;;;5031542;28;20234;-48
2023/03/07 10:49:26;;;;;;;16.33;11.20;;;13.80;97.60;;;;;;5025990;28;20256;-47
2023/03/07 10:51:59;;;;;;;17.03;11.10;;;12.90;96.60;;;;;;5027215;28;20224;-48
2023/03/07 10:54:31;;;;;;;13.93;10.30;;;12.80;98.70;;;;;;5030279;28;20201;-47
2023/03/07 10:57:06;;;;;;;12.13;9.67;;;12.60;99.00;;;;;;5010977;28;20248;-47
2023/03/07 10:59:34;;;;;;;14.17;10.57;;;12.20;99.50;;;;;;5014661;28;20235;-47
2023/03/07 11:02:04;;;;;;;15.27;10.90;;;11.50;98.40;;;;;;5015573;28;20253;-47
2023/03/07 11:04:43;;;;;;;17.03;11.27;;;11.30;98.10;;;;;;5020868;28;20216;-47
2023/03/07 11:07:27;;;;;;;15.43;9.60;;;11.00;98.80;;;;;;5020867;28;20779;-47
2023/03/07 11:09:56;;;;;;;14.17;9.33;;;10.80;99.70;;;;;;5034124;28;20291;-47
2023/03/07 11:12:24;;;;;;;15.37;9.80;;;10.50;99.40;;;;;;5023131;28;20626;-48
2023/03/07 11:14:53;;;;;;;13.10;9.60;;;10.40;99.90;;;;;;5034002;28;20270;-46
2023/03/07 11:17:21;;;;;;;15.27;9.43;;;10.40;99.90;;;;;;5034978;28;20221;-46
2023/03/07 11:19:51;;;;;;;15.27;10.00;;;10.20;99.90;;;;;;5035430;28;20205;-47
2023/03/07 11:22:26;;;;;;;13.53;10.13;;;10.40;99.90;;;;;;5035602;28;20201;-49
2023/03/07 11:25:01;;;;;;;12.63;10.17;;;10.40;99.90;;;;;;5035113;28;20636;-49
2023/03/07 11:27:35;;;;;;;14.53;10.43;;;10.10;99.90;;;;;;5031162;28;20219;-48
2023/03/07 11:30:17;;;;;;;15.37;9.63;;;9.90;99.90;;;;;;4995536;28;20276;-47
2023/03/07 11:32:52;;;;;;;14.53;9.73;;;10.00;99.90;;;;;;4995539;28;20222;-48
2023/03/07 11:35:22;;;;;;;14.73;10.40;;;9.80;99.90;;;;;;4995463;28;20263;-47
2023/03/07 11:38:03;;;;;;;17.70;10.57;;;9.70;99.90;;;;;;5002446;28;20223;-47
2023/03/07 11:40:34;;;;;;;13.13;9.77;;;9.70;99.90;;;;;;5020347;28;20262;-47
2023/03/07 11:43:14;;;;;;;14.07;9.83;;;9.60;99.90;;;;;;5013209;28;20208;-47
2023/03/07 11:45:50;;;;;;;15.17;9.90;;;9.30;99.90;;;;;;5032362;28;20750;-48
2023/03/07 11:48:36;;;;;;;17.53;11.13;;;9.20;99.90;;;;;;5021701;28;20218;-47
2023/03/07 11:51:03;;;;;;;13.97;9.90;;;9.10;99.90;;;;;;5014535;28;20215;-47
2023/03/07 11:53:47;;;;;;;16.90;9.83;;;9.20;99.90;;;;;;5022303;28;20311;-48
2023/03/07 11:56:25;;;;;;;12.63;9.27;;;9.30;99.90;;;;;;4995011;28;20287;-48
2023/03/07 11:59:22;;;;;;;14.07;9.27;;;9.40;99.90;;;;;;4995077;28;20209;-49
2023/03/07 12:01:54;;;;;;;10.47;8.63;;;9.50;99.90;;;;;;5020687;28;20201;-46
2023/03/07 12:04:59;;;;;;;14.63;8.40;;;9.40;99.90;;;;;;5025880;28;20287;-50
2023/03/07 12:07:41;;;;;;;8.87;7.53;;;9.00;99.90;;;;;;5013180;28;20230;-47
2023/03/07 12:10:17;;;;;;;11.57;7.83;;;8.90;99.90;;;;;;5020861;28;20201;-47
2023/03/07 12:13:02;;;;;;;10.37;7.67;;;8.80;99.90;;;;;;5021976;28;20247;-47
2023/03/07 12:15:35;;;;;;;13.27;7.57;;;9.10;99.90;;;;;;5025200;28;20200;-49
2023/03/07 12:18:35;;;;;;;12.23;8.10;;;9.10;99.90;;;;;;5020457;28;20686;-46
2023/03/07 12:21:19;;;;;;;14.20;9.13;;;8.90;99.90;;;;;;5009270;28;20209;-49
2023/03/07 12:23:48;;;;;;;11.13;8.63;;;8.70;99.90;;;;;;5019856;28;20201;-46
2023/03/07 12:26:22;;;;;;;9.20;7.07;;;8.80;99.90;;;;;;5028128;28;20217;-48
2023/03/07 12:28:54;;;;;;;12.17;8.17;;;9.00;99.90;;;;;;5021671;28;20204;-45
2023/03/07 12:31:27;;;;;;;12.07;8.80;;;9.00;99.90;;;;;;5013783;28;20266;-49
2023/03/07 12:34:01;;;;;;;14.07;9.53;;;9.10;99.90;;;;;;5017321;28;20250;-47
2023/03/07 12:36:34;;;;;;;9.00;7.73;;;9.20;99.90;;;;;;5010891;28;20229;-47
2023/03/07 12:39:08;;;;;;;10.67;8.60;;;9.00;99.90;;;;;;5014115;28;20200;-48
2023/03/07 12:41:52;;;;;;;12.57;8.53;;;9.00;99.90;;;;;;5024347;28;20204;-48
2023/03/07 12:44:33;;;;;;;10.93;7.60;;;9.00;99.90;;;;;;5016623;28;20200;-46
2023/03/07 12:47:06;;;;;;;13.38;9.40;;;9.10;99.90;;;;;;4992524;28;20506;-47
2023/03/07 12:49:40;;;;;;;12.70;8.60;;;9.30;99.90;;;;;;5010800;28;20211;-45
2023/03/07 12:52:16;;;;;;;11.13;7.87;;;9.20;99.90;;;;;;5022029;28;20224;-49
2023/03/07 12:54:49;;;;;;;14.43;9.17;;;9.20;99.90;;;;;;5022322;28;20259;-47